Time;durP1;ratioP1;P1;durP2;ratioP2;P2;SDS_P1;SDS_P2;PMS_P1;PMS_P2;Temp;Humidity;BMP_temperature;BMP_pressure;BME280_temperature;BME280_humidity;BME280_pressure;Samples;Min_cycle;Max_cycle;Signal;HPM_P1;HPM_P2
2021/12/26 00:00:47;;;;;;;1.40;1.00;;;16.80;41.30;;;;;;5006657;28;44803;-76
2021/12/26 00:03:14;;;;;;;2.05;1.48;;;16.80;41.40;;;;;;5006084;28;45310;-76
2021/12/26 00:05:43;;;;;;;2.13;1.33;;;16.90;41.30;;;;;;5005768;28;44711;-77
2021/12/26 00:08:10;;;;;;;1.48;1.10;;;16.90;41.30;;;;;;5009593;28;44673;-76
2021/12/26 00:10:36;;;;;;;1.00;0.90;;;16.90;41.50;;;;;;5012094;28;44801;-76
2021/12/26 00:13:04;;;;;;;1.40;1.13;;;16.90;41.70;;;;;;5005850;28;46584;-77
2021/12/26 00:15:31;;;;;;;1.88;1.20;;;16.90;41.50;;;;;;5002679;28;44858;-76
2021/12/26 00:17:58;;;;;;;1.80;1.10;;;16.90;41.10;;;;;;5010991;28;45129;-76
2021/12/26 00:20:26;;;;;;;1.45;1.00;;;16.90;41.00;;;;;;5007706;28;44682;-77
2021/12/26 00:22:55;;;;;;;1.60;1.10;;;16.90;41.00;;;;;;5010827;28;46626;-76
2021/12/26 00:25:21;;;;;;;1.42;1.10;;;16.80;40.90;;;;;;5008627;28;44629;-76
2021/12/26 00:27:48;;;;;;;1.55;1.15;;;16.80;40.70;;;;;;5008064;28;44709;-76
2021/12/26 00:30:18;;;;;;;1.45;1.00;;;16.80;40.50;;;;;;5006025;28;44835;-76
2021/12/26 00:32:46;;;;;;;1.08;0.80;;;16.80;40.50;;;;;;5008141;28;45228;-76
2021/12/26 00:35:15;;;;;;;1.20;1.00;;;16.80;40.10;;;;;;5004584;28;44744;-76
2021/12/26 00:37:42;;;;;;;1.38;1.00;;;16.80;40.40;;;;;;5008890;28;44801;-76
2021/12/26 00:40:14;;;;;;;1.20;1.00;;;16.80;40.30;;;;;;5005811;28;44835;-77
2021/12/26 00:42:42;;;;;;;1.25;0.98;;;16.80;40.40;;;;;;5006293;28;47399;-77
2021/12/26 00:45:09;;;;;;;1.30;1.00;;;16.80;40.60;;;;;;5011192;28;44794;-77
2021/12/26 00:47:37;;;;;;;1.15;1.00;;;16.80;40.80;;;;;;5006081;28;44772;-76
2021/12/26 00:50:06;;;;;;;1.35;1.02;;;16.80;41.20;;;;;;5007868;28;44756;-77
2021/12/26 00:52:33;;;;;;;1.17;1.08;;;16.80;41.10;;;;;;5010992;28;45324;-76
2021/12/26 00:55:00;;;;;;;1.30;1.00;;;16.90;41.00;;;;;;5008554;28;44767;-76
2021/12/26 00:57:28;;;;;;;1.05;0.95;;;16.80;41.30;;;;;;5008111;28;45214;-77
2021/12/26 00:59:55;;;;;;;0.77;0.73;;;16.80;41.80;;;;;;5007881;28;44809;-76
2021/12/26 01:02:22;;;;;;;1.60;1.08;;;16.80;41.70;;;;;;5007894;28;46469;-77
2021/12/26 01:04:49;;;;;;;1.55;1.00;;;16.80;41.00;;;;;;5007424;28;44962;-77
2021/12/26 01:07:26;;;;;;;1.17;1.00;;;16.80;40.70;;;;;;5005142;28;44987;-77
2021/12/26 01:09:53;;;;;;;1.00;0.93;;;16.70;40.70;;;;;;5008259;28;45093;-76
2021/12/26 01:12:20;;;;;;;0.98;0.82;;;16.80;40.80;;;;;;5014035;28;46606;-76
2021/12/26 01:14:54;;;;;;;1.83;1.13;;;16.70;41.00;;;;;;5006957;28;44955;-77
2021/12/26 01:17:24;;;;;;;1.63;1.20;;;16.70;40.80;;;;;;5005126;28;45043;-76
2021/12/26 01:19:51;;;;;;;1.98;0.98;;;16.70;40.60;;;;;;5010288;28;44721;-77
2021/12/26 01:22:19;;;;;;;1.85;1.13;;;16.70;41.00;;;;;;5010648;28;45482;-76
2021/12/26 01:24:48;;;;;;;1.10;1.00;;;16.70;40.90;;;;;;5008153;28;44849;-77
2021/12/26 01:27:15;;;;;;;0.95;0.80;;;16.70;40.70;;;;;;5011205;28;44975;-76
2021/12/26 01:29:42;;;;;;;1.33;0.93;;;16.70;40.60;;;;;;5006206;28;44990;-76
2021/12/26 01:32:10;;;;;;;1.33;1.17;;;16.70;41.10;;;;;;5008678;28;46608;-76
2021/12/26 01:34:37;;;;;;;1.38;1.00;;;16.80;41.20;;;;;;5008252;28;44678;-77
2021/12/26 01:37:04;;;;;;;2.35;0.90;;;16.80;41.40;;;;;;5010951;28;44572;-76
2021/12/26 01:39:31;;;;;;;0.98;0.88;;;16.80;41.80;;;;;;5007482;28;44881;-76
2021/12/26 01:42:02;;;;;;;1.30;1.00;;;16.80;41.10;;;;;;5000568;28;44964;-76
2021/12/26 01:44:29;;;;;;;1.52;1.00;;;16.80;41.50;;;;;;5001094;28;45061;-77
2021/12/26 01:46:57;;;;;;;1.42;0.88;;;16.80;41.00;;;;;;5003142;28;44658;-76
2021/12/26 01:49:29;;;;;;;1.50;1.13;;;16.80;42.00;;;;;;5008691;28;44900;-77
2021/12/26 01:51:58;;;;;;;1.52;1.10;;;16.70;40.50;;;;;;5010835;28;47240;-76
2021/12/26 01:54:32;;;;;;;0.85;0.80;;;16.80;40.40;;;;;;5008887;28;45469;-77
2021/12/26 01:56:59;;;;;;;1.08;0.90;;;16.80;40.30;;;;;;5005870;28;44702;-77
2021/12/26 01:59:26;;;;;;;1.17;0.88;;;16.80;40.60;;;;;;5008825;28;45069;-76
2021/12/26 02:01:56;;;;;;;0.80;0.73;;;16.70;40.50;;;;;;5007230;28;47127;-77
2021/12/26 02:04:27;;;;;;;1.45;1.10;;;16.70;40.20;;;;;;5008709;28;44657;-76
2021/12/26 02:06:54;;;;;;;1.20;1.10;;;16.80;40.10;;;;;;5008820;28;44720;-76
2021/12/26 02:09:21;;;;;;;1.27;1.00;;;16.70;40.20;;;;;;5008702;28;45269;-77
2021/12/26 02:11:48;;;;;;;0.80;0.80;;;16.70;40.10;;;;;;5012177;28;45328;-77
2021/12/26 02:14:15;;;;;;;1.88;1.00;;;16.70;40.80;;;;;;5008763;28;44637;-76
2021/12/26 02:16:42;;;;;;;1.20;0.93;;;16.80;40.90;;;;;;5005500;28;44862;-77
2021/12/26 02:19:11;;;;;;;1.30;1.08;;;16.80;40.80;;;;;;5007707;28;44757;-77
2021/12/26 02:21:58;;;;;;;1.30;0.98;;;16.80;40.40;;;;;;5011719;28;47258;-77
2021/12/26 02:24:30;;;;;;;1.10;0.90;;;16.80;40.50;;;;;;5010157;28;44670;-77
2021/12/26 02:29:42;;;;;;;1.70;1.10;;;16.80;40.90;;;;;;5008124;28;44623;-76
2021/12/26 02:32:10;;;;;;;1.60;1.00;;;16.80;41.10;;;;;;5007022;28;46273;-77
2021/12/26 02:34:37;;;;;;;2.38;1.15;;;16.80;40.90;;;;;;5004409;28;44824;-76
2021/12/26 02:37:06;;;;;;;1.27;0.93;;;16.80;40.60;;;;;;5007644;28;44595;-76
2021/12/26 02:39:33;;;;;;;1.33;0.90;;;16.80;40.20;;;;;;5010012;28;44770;-76
2021/12/26 02:42:00;;;;;;;1.05;0.80;;;16.80;40.10;;;;;;5007596;28;46606;-77
2021/12/26 02:44:27;;;;;;;1.85;1.15;;;16.80;40.10;;;;;;5003090;28;44690;-76
2021/12/26 02:46:54;;;;;;;1.48;0.95;;;16.80;40.40;;;;;;5008401;28;44667;-77
2021/12/26 02:49:24;;;;;;;1.35;1.08;;;16.80;40.30;;;;;;5009412;28;44924;-77
2021/12/26 02:51:52;;;;;;;1.40;1.10;;;16.80;40.10;;;;;;5010016;28;45225;-76
2021/12/26 02:54:23;;;;;;;1.35;1.02;;;16.80;40.00;;;;;;5008277;28;44678;-77
2021/12/26 02:56:50;;;;;;;1.67;0.90;;;16.80;40.00;;;;;;5008611;28;44713;-76
2021/12/26 02:59:17;;;;;;;1.92;0.80;;;16.80;40.30;;;;;;5012538;28;44821;-76
2021/12/26 03:01:44;;;;;;;1.15;1.00;;;16.80;40.70;;;;;;5011415;28;47114;-76
2021/12/26 03:04:11;;;;;;;1.55;1.10;;;16.80;40.70;;;;;;5011374;28;44670;-77
2021/12/26 03:06:45;;;;;;;1.20;1.02;;;16.80;40.10;;;;;;5005401;28;44681;-76
2021/12/26 03:09:12;;;;;;;1.30;0.90;;;16.80;40.70;;;;;;5012486;28;44680;-76
2021/12/26 03:11:43;;;;;;;1.25;1.00;;;16.80;40.50;;;;;;5012879;28;46166;-76
2021/12/26 03:14:10;;;;;;;1.65;1.10;;;16.80;40.60;;;;;;5010801;28;44754;-77
2021/12/26 03:16:37;;;;;;;1.83;1.10;;;16.80;40.20;;;;;;5004247;28;44768;-76
2021/12/26 03:19:04;;;;;;;1.23;1.02;;;16.80;40.50;;;;;;5013943;28;44792;-77
2021/12/26 03:21:31;;;;;;;1.38;1.05;;;16.80;40.30;;;;;;5012779;28;46587;-76
2021/12/26 03:23:58;;;;;;;1.70;1.00;;;16.80;40.20;;;;;;5011002;28;44772;-76
2021/12/26 03:26:24;;;;;;;1.23;1.00;;;16.70;40.00;;;;;;5013089;28;45016;-76
2021/12/26 03:28:53;;;;;;;1.27;1.15;;;16.70;40.20;;;;;;5012690;28;44809;-76
2021/12/26 03:31:19;;;;;;;1.17;0.95;;;16.80;40.10;;;;;;5009838;28;47298;-76
2021/12/26 03:33:46;;;;;;;1.05;0.93;;;16.70;40.00;;;;;;5011961;28;44787;-76
2021/12/26 03:36:13;;;;;;;1.17;1.05;;;16.80;40.00;;;;;;5012732;28;44744;-77
2021/12/26 03:38:40;;;;;;;1.00;0.90;;;16.70;40.00;;;;;;5006543;28;44875;-76
2021/12/26 03:41:08;;;;;;;1.40;0.98;;;16.70;40.20;;;;;;5008198;28;46344;-76
2021/12/26 03:43:35;;;;;;;1.30;1.00;;;16.80;40.30;;;;;;5010889;28;44672;-77
2021/12/26 03:46:04;;;;;;;2.30;1.05;;;16.80;40.40;;;;;;5011391;28;44736;-76
2021/12/26 03:48:30;;;;;;;1.80;1.35;;;16.80;41.90;;;;;;5000326;28;44746;-76
2021/12/26 03:50:59;;;;;;;1.27;1.10;;;16.80;40.80;;;;;;5011781;28;46595;-76
2021/12/26 03:53:26;;;;;;;1.33;0.90;;;16.80;40.20;;;;;;5010167;28;45530;-77
2021/12/26 03:55:53;;;;;;;1.63;1.00;;;16.80;40.90;;;;;;5018766;28;44772;-76
2021/12/26 03:58:20;;;;;;;1.10;1.00;;;16.80;40.30;;;;;;5013528;28;44693;-77
2021/12/26 04:00:49;;;;;;;1.17;0.88;;;16.80;40.60;;;;;;5010636;28;46623;-77
2021/12/26 04:03:17;;;;;;;2.15;1.08;;;16.80;40.30;;;;;;5009919;28;44695;-77
2021/12/26 04:05:44;;;;;;;1.63;0.93;;;16.70;40.00;;;;;;5012409;28;44864;-77
2021/12/26 04:08:11;;;;;;;1.88;1.23;;;16.70;40.10;;;;;;5009808;28;44871;-76
2021/12/26 04:10:38;;;;;;;1.85;1.20;;;16.80;40.00;;;;;;5012245;28;46260;-77
2021/12/26 04:13:06;;;;;;;1.55;0.85;;;16.80;40.10;;;;;;5010373;28;44618;-77
2021/12/26 04:15:33;;;;;;;1.27;1.10;;;16.80;40.30;;;;;;5010166;28;44742;-77
2021/12/26 04:18:00;;;;;;;2.10;1.17;;;16.80;40.20;;;;;;5010976;28;44764;-76
2021/12/26 04:20:30;;;;;;;1.02;0.90;;;16.80;40.30;;;;;;5011661;28;45455;-77
2021/12/26 04:22:57;;;;;;;2.15;1.10;;;16.80;40.30;;;;;;5011055;28;44682;-76
2021/12/26 04:25:24;;;;;;;1.60;1.00;;;16.70;40.40;;;;;;5011695;28;44659;-76
2021/12/26 04:27:51;;;;;;;1.52;1.20;;;16.80;40.50;;;;;;5011906;28;44782;-76
2021/12/26 04:30:19;;;;;;;1.75;1.02;;;16.80;40.50;;;;;;5013803;28;46457;-77
2021/12/26 04:32:46;;;;;;;1.55;1.00;;;16.80;40.30;;;;;;5012066;28;44689;-76
2021/12/26 04:35:14;;;;;;;1.60;1.15;;;16.80;40.30;;;;;;5012068;28;44628;-76
2021/12/26 04:37:43;;;;;;;0.98;0.73;;;16.80;40.50;;;;;;5012258;28;44835;-76
2021/12/26 04:40:13;;;;;;;1.10;1.00;;;16.80;40.50;;;;;;5010716;28;45271;-76
2021/12/26 04:42:41;;;;;;;1.08;0.98;;;16.80;40.70;;;;;;5010605;28;44737;-76
2021/12/26 04:45:09;;;;;;;1.33;1.13;;;16.80;40.30;;;;;;5009616;28;44619;-76
2021/12/26 04:47:37;;;;;;;1.52;1.35;;;16.80;40.40;;;;;;5009738;28;44897;-76
2021/12/26 04:50:05;;;;;;;1.25;1.13;;;16.80;40.40;;;;;;5010937;28;45602;-76
2021/12/26 04:52:32;;;;;;;1.20;1.08;;;16.80;40.30;;;;;;5011256;28;44799;-76
2021/12/26 04:55:02;;;;;;;1.42;1.27;;;16.80;40.50;;;;;;5009967;28;44934;-77
2021/12/26 04:57:29;;;;;;;1.35;1.10;;;16.80;40.40;;;;;;5010297;28;44747;-77
2021/12/26 04:59:55;;;;;;;1.33;1.20;;;16.80;40.40;;;;;;5010914;28;46865;-77
2021/12/26 05:02:22;;;;;;;1.92;1.00;;;16.80;40.50;;;;;;5010469;28;44622;-77
2021/12/26 05:04:50;;;;;;;1.27;1.15;;;16.80;40.60;;;;;;5010051;28;44727;-76
2021/12/26 05:07:17;;;;;;;1.55;1.20;;;16.80;40.60;;;;;;5012889;28;44983;-77
2021/12/26 05:09:45;;;;;;;1.48;1.05;;;16.80;40.60;;;;;;5011148;28;46372;-76
2021/12/26 05:12:13;;;;;;;1.15;0.93;;;16.80;40.70;;;;;;5009490;28;44750;-77
2021/12/26 05:14:40;;;;;;;1.00;0.90;;;16.80;40.60;;;;;;5004484;28;45142;-76
2021/12/26 05:17:07;;;;;;;1.35;1.00;;;16.80;40.60;;;;;;5031530;22;45092;-77
2021/12/26 05:19:35;;;;;;;1.33;1.10;;;16.80;40.50;;;;;;5045210;28;46373;-76
2021/12/26 05:22:02;;;;;;;1.52;1.20;;;16.80;40.70;;;;;;5043799;28;44678;-76
2021/12/26 05:24:29;;;;;;;1.65;1.10;;;16.80;40.50;;;;;;5035977;28;44724;-77
2021/12/26 05:26:55;;;;;;;1.23;1.10;;;16.80;40.40;;;;;;5043732;28;44887;-77
2021/12/26 05:29:23;;;;;;;1.33;1.23;;;16.80;40.40;;;;;;5049734;28;45260;-77
2021/12/26 05:31:52;;;;;;;1.58;1.10;;;16.80;41.50;;;;;;5049660;28;44585;-76
2021/12/26 05:34:19;;;;;;;1.70;1.20;;;16.80;41.10;;;;;;5042216;28;45488;-76
2021/12/26 05:36:46;;;;;;;1.70;1.20;;;16.80;40.80;;;;;;5036108;28;44700;-76
2021/12/26 05:39:13;;;;;;;1.38;1.20;;;16.80;40.70;;;;;;5031141;28;45519;-76
2021/12/26 05:41:41;;;;;;;1.65;1.20;;;16.80;40.70;;;;;;5045407;28;44658;-76
2021/12/26 05:44:08;;;;;;;1.20;1.10;;;16.80;40.70;;;;;;5045200;28;44833;-76
2021/12/26 05:46:38;;;;;;;1.25;1.15;;;16.90;40.90;;;;;;5039724;28;44831;-76
2021/12/26 05:49:06;;;;;;;1.50;1.10;;;16.80;40.80;;;;;;5045060;28;46437;-77
2021/12/26 05:51:33;;;;;;;1.90;1.17;;;16.80;40.70;;;;;;5029481;28;44907;-76
2021/12/26 05:54:00;;;;;;;1.38;1.27;;;16.80;40.70;;;;;;5047456;28;45362;-76
2021/12/26 05:56:27;;;;;;;1.45;1.20;;;16.80;41.00;;;;;;5042241;28;44769;-76
2021/12/26 05:58:55;;;;;;;1.40;1.08;;;16.80;40.90;;;;;;5046634;28;47020;-76
2021/12/26 06:01:22;;;;;;;1.85;1.45;;;16.90;41.00;;;;;;5048281;28;44641;-76
2021/12/26 06:03:50;;;;;;;2.05;1.30;;;16.90;40.70;;;;;;5042640;28;44976;-77
2021/12/26 06:06:17;;;;;;;2.78;1.20;;;16.90;41.30;;;;;;5042405;28;44813;-76
2021/12/26 06:08:43;;;;;;;2.50;1.30;;;16.90;41.20;;;;;;5044577;28;46307;-76
2021/12/26 06:11:10;;;;;;;1.77;1.30;;;16.90;41.40;;;;;;5037794;28;45050;-76
2021/12/26 06:13:38;;;;;;;2.45;1.60;;;16.90;40.50;;;;;;5041688;28;44706;-77
2021/12/26 06:16:05;;;;;;;1.75;1.38;;;16.80;40.70;;;;;;5042659;28;44692;-77
2021/12/26 06:18:32;;;;;;;1.48;1.30;;;16.80;40.80;;;;;;5048583;28;45248;-77
2021/12/26 06:21:00;;;;;;;2.08;1.45;;;16.80;40.70;;;;;;5030130;28;45103;-76
2021/12/26 06:23:27;;;;;;;1.52;1.35;;;16.80;40.70;;;;;;5042927;28;44818;-76
2021/12/26 06:25:54;;;;;;;2.08;1.48;;;16.80;40.80;;;;;;5048513;28;44737;-76
2021/12/26 06:28:21;;;;;;;2.45;1.38;;;16.80;40.60;;;;;;5049014;28;45025;-76
2021/12/26 06:30:48;;;;;;;1.33;1.23;;;16.80;40.70;;;;;;5032732;28;44696;-76
2021/12/26 06:33:15;;;;;;;1.67;1.45;;;16.80;40.70;;;;;;5052128;28;44697;-76
2021/12/26 06:35:42;;;;;;;1.88;1.30;;;16.80;40.70;;;;;;5048258;28;44828;-76
2021/12/26 06:38:10;;;;;;;2.60;1.65;;;16.80;40.70;;;;;;5035463;28;45212;-76
2021/12/26 06:40:37;;;;;;;1.95;1.48;;;16.80;40.70;;;;;;5032606;28;45071;-76
2021/12/26 06:43:06;;;;;;;1.85;1.55;;;16.80;40.70;;;;;;5042584;28;45957;-77
2021/12/26 06:45:32;;;;;;;1.67;1.38;;;16.80;40.50;;;;;;5048979;28;44859;-76
2021/12/26 06:48:02;;;;;;;1.35;1.25;;;16.80;40.60;;;;;;5047243;28;45017;-76
2021/12/26 06:50:29;;;;;;;1.85;1.38;;;16.80;40.90;;;;;;5035617;28;44978;-76
2021/12/26 06:52:56;;;;;;;1.77;1.42;;;16.80;40.60;;;;;;5042189;28;44688;-76
2021/12/26 06:55:24;;;;;;;1.60;1.50;;;16.80;40.70;;;;;;5044517;28;44859;-77
2021/12/26 06:57:51;;;;;;;1.73;1.55;;;16.80;40.50;;;;;;5046606;28;45509;-76
2021/12/26 07:00:18;;;;;;;1.77;1.45;;;16.80;40.60;;;;;;5051476;28;45278;-76
2021/12/26 07:02:46;;;;;;;2.15;1.45;;;16.80;40.40;;;;;;5050015;28;44708;-76
2021/12/26 07:05:14;;;;;;;1.77;1.33;;;16.80;40.70;;;;;;5052495;28;44816;-76
2021/12/26 07:07:41;;;;;;;2.08;1.45;;;16.80;40.60;;;;;;5049145;28;46596;-76
2021/12/26 07:10:09;;;;;;;1.65;1.20;;;16.80;40.60;;;;;;5043223;28;44947;-76
2021/12/26 07:12:38;;;;;;;1.77;1.48;;;16.80;40.70;;;;;;5039246;28;44641;-76
2021/12/26 07:15:05;;;;;;;1.65;1.38;;;16.80;40.70;;;;;;5045967;28;44947;-76
2021/12/26 07:17:32;;;;;;;2.78;1.92;;;16.80;40.80;;;;;;5045603;28;46525;-76
2021/12/26 07:19:59;;;;;;;2.25;1.52;;;16.80;40.80;;;;;;5039461;28;44688;-76
2021/12/26 07:22:26;;;;;;;2.22;1.55;;;16.80;40.80;;;;;;5038936;28;44647;-76
2021/12/26 07:24:53;;;;;;;2.40;1.60;;;16.80;40.70;;;;;;5034183;28;44762;-76
2021/12/26 07:27:19;;;;;;;2.08;1.50;;;16.80;40.70;;;;;;5045537;28;46331;-76
2021/12/26 07:29:48;;;;;;;2.70;1.70;;;16.80;40.60;;;;;;5051904;28;44820;-76
2021/12/26 07:32:15;;;;;;;3.00;1.80;;;16.80;40.60;;;;;;5042032;28;44826;-77
2021/12/26 07:34:42;;;;;;;1.52;1.42;;;16.80;40.70;;;;;;5062738;28;44781;-76
2021/12/26 07:37:10;;;;;;;2.10;1.55;;;16.80;40.70;;;;;;5060851;28;46924;-76
2021/12/26 07:39:37;;;;;;;2.80;2.03;;;16.80;40.70;;;;;;5052111;28;44787;-76
2021/12/26 07:42:05;;;;;;;1.73;1.60;;;16.80;40.50;;;;;;5048770;28;44928;-76
2021/12/26 07:44:32;;;;;;;1.88;1.67;;;16.80;40.60;;;;;;5046796;28;44738;-76
2021/12/26 07:47:00;;;;;;;2.13;1.60;;;16.80;40.70;;;;;;5045098;28;46446;-77
2021/12/26 07:49:27;;;;;;;1.83;1.30;;;16.80;40.70;;;;;;5043244;28;44801;-77
2021/12/26 07:51:55;;;;;;;1.67;1.45;;;16.80;40.70;;;;;;5040851;28;44704;-78
2021/12/26 07:54:23;;;;;;;2.03;1.83;;;16.80;40.70;;;;;;5040181;28;44807;-77
2021/12/26 07:56:50;;;;;;;2.85;2.05;;;16.70;40.70;;;;;;5050144;28;47608;-76
2021/12/26 07:59:17;;;;;;;2.38;1.90;;;16.70;40.70;;;;;;5045250;28;44691;-77
2021/12/26 08:01:44;;;;;;;2.50;1.90;;;16.70;40.70;;;;;;5048023;28;44737;-77
2021/12/26 08:04:14;;;;;;;2.15;1.83;;;16.70;40.70;;;;;;5044370;28;44735;-77
2021/12/26 08:06:41;;;;;;;1.90;1.63;;;16.70;40.80;;;;;;5051618;28;46653;-77
2021/12/26 08:09:09;;;;;;;2.65;1.98;;;16.70;41.00;;;;;;5037248;28;45061;-77
2021/12/26 08:11:36;;;;;;;2.22;1.70;;;16.80;41.00;;;;;;5038503;28;44837;-78
2021/12/26 08:14:04;;;;;;;2.65;2.10;;;16.70;40.90;;;;;;5039619;28;44727;-76
2021/12/26 08:16:31;;;;;;;1.95;1.52;;;16.80;41.20;;;;;;5043034;28;46645;-77
2021/12/26 08:18:58;;;;;;;2.38;1.73;;;16.80;41.10;;;;;;5041703;28;44713;-77
2021/12/26 08:21:26;;;;;;;1.70;1.38;;;16.80;40.90;;;;;;5040440;28;46207;-77
2021/12/26 08:23:53;;;;;;;2.28;1.70;;;16.80;41.20;;;;;;5048448;28;44871;-77
2021/12/26 08:26:20;;;;;;;3.33;1.88;;;16.80;40.80;;;;;;5044632;28;47340;-77
2021/12/26 08:28:47;;;;;;;2.50;2.08;;;16.80;40.80;;;;;;5048421;28;44947;-78
2021/12/26 08:31:16;;;;;;;1.98;1.50;;;16.80;40.70;;;;;;5045290;28;44771;-77
2021/12/26 08:33:44;;;;;;;1.73;1.30;;;16.80;41.70;;;;;;5046218;28;44688;-77
2021/12/26 08:36:11;;;;;;;2.40;1.70;;;16.80;42.80;;;;;;5039986;28;46376;-77
2021/12/26 08:38:40;;;;;;;1.73;1.50;;;16.80;43.40;;;;;;5029817;28;44684;-78
2021/12/26 08:41:07;;;;;;;2.30;1.90;;;16.80;43.70;;;;;;5046884;28;44682;-78
2021/12/26 08:43:34;;;;;;;1.70;1.48;;;16.80;42.90;;;;;;5048453;28;44663;-77
2021/12/26 08:46:01;;;;;;;3.03;1.60;;;16.80;42.80;;;;;;5046143;28;46370;-77
2021/12/26 08:48:28;;;;;;;1.40;1.17;;;16.80;44.60;;;;;;5044818;28;45800;-77
2021/12/26 08:50:55;;;;;;;1.85;1.50;;;16.80;43.80;;;;;;5040784;28;44991;-77
2021/12/26 08:53:23;;;;;;;1.92;1.40;;;16.80;43.90;;;;;;5042440;28;45275;-77
2021/12/26 08:55:52;;;;;;;1.38;1.15;;;16.80;44.00;;;;;;5040978;28;46328;-78
2021/12/26 08:58:20;;;;;;;1.40;1.20;;;16.80;44.00;;;;;;5047689;28;45145;-77
2021/12/26 09:00:47;;;;;;;1.52;1.23;;;16.80;43.60;;;;;;5042021;28;44755;-78
2021/12/26 09:03:14;;;;;;;2.05;1.40;;;16.80;43.60;;;;;;5041324;28;44775;-78
2021/12/26 09:05:40;;;;;;;1.35;1.00;;;16.80;43.30;;;;;;5048051;28;46474;-77
2021/12/26 09:08:10;;;;;;;2.25;1.92;;;16.80;43.40;;;;;;5044422;28;45179;-77
2021/12/26 09:10:37;;;;;;;2.80;2.03;;;16.80;42.10;;;;;;5049007;28;44724;-77
2021/12/26 09:13:06;;;;;;;2.92;2.40;;;16.80;42.00;;;;;;5042934;28;44895;-77
2021/12/26 09:15:33;;;;;;;2.60;2.10;;;16.80;41.80;;;;;;5036482;28;46614;-78
2021/12/26 09:18:00;;;;;;;2.45;2.00;;;16.80;41.80;;;;;;5048749;28;45032;-77
2021/12/26 09:20:29;;;;;;;2.25;1.95;;;16.80;41.80;;;;;;5044703;28;45902;-77
2021/12/26 09:22:56;;;;;;;2.47;1.90;;;16.80;41.80;;;;;;5045218;28;45172;-77
2021/12/26 09:25:22;;;;;;;2.00;1.80;;;16.80;41.80;;;;;;5042891;28;46549;-78
2021/12/26 09:27:49;;;;;;;2.83;2.13;;;16.80;41.80;;;;;;5043501;28;44678;-77
2021/12/26 09:30:18;;;;;;;2.50;1.90;;;16.80;44.50;;;;;;5043049;28;44692;-77
2021/12/26 09:32:44;;;;;;;1.90;1.58;;;16.80;43.40;;;;;;5044497;28;44796;-77
2021/12/26 09:35:12;;;;;;;2.35;1.90;;;16.80;42.70;;;;;;5048224;28;45932;-77
2021/12/26 09:37:40;;;;;;;2.13;1.80;;;16.80;42.40;;;;;;5049569;28;44806;-78
2021/12/26 09:40:09;;;;;;;2.03;1.45;;;16.80;43.20;;;;;;5047467;28;44777;-78
2021/12/26 09:42:39;;;;;;;2.03;1.60;;;16.80;44.20;;;;;;5053650;28;44967;-78
2021/12/26 09:45:09;;;;;;;2.22;1.90;;;16.80;44.60;;;;;;5030174;28;46611;-76
2021/12/26 09:47:38;;;;;;;2.63;1.88;;;16.80;44.80;;;;;;5041172;28;46083;-77
2021/12/26 09:50:06;;;;;;;2.22;1.67;;;16.80;43.80;;;;;;5033576;28;44701;-77
2021/12/26 09:52:33;;;;;;;2.22;1.80;;;16.80;43.50;;;;;;5030338;28;44907;-77
2021/12/26 09:55:01;;;;;;;2.13;1.70;;;16.80;43.40;;;;;;5048807;28;46299;-78
2021/12/26 09:57:29;;;;;;;2.17;1.88;;;16.80;43.80;;;;;;5045518;28;44735;-77
2021/12/26 09:59:57;;;;;;;2.97;1.52;;;16.80;44.30;;;;;;5050897;28;44744;-77
2021/12/26 10:02:24;;;;;;;2.28;1.80;;;16.80;44.60;;;;;;5055264;28;44798;-77
2021/12/26 10:04:53;;;;;;;2.80;2.00;;;16.80;44.70;;;;;;5041759;28;46357;-77
2021/12/26 10:07:22;;;;;;;1.92;1.63;;;16.80;44.00;;;;;;5035287;28;45695;-77
2021/12/26 10:09:51;;;;;;;1.88;1.67;;;16.80;44.70;;;;;;5046441;28;44741;-77
2021/12/26 10:12:21;;;;;;;2.13;1.77;;;16.80;43.60;;;;;;5048837;28;44775;-77
2021/12/26 10:14:51;;;;;;;2.22;1.88;;;16.80;44.60;;;;;;5044281;28;47615;-77
2021/12/26 10:17:23;;;;;;;2.13;1.70;;;16.80;43.30;;;;;;5046172;28;45018;-77
2021/12/26 10:19:59;;;;;;;1.98;1.67;;;16.80;44.20;;;;;;5047175;28;44979;-78
2021/12/26 10:22:28;;;;;;;2.10;1.65;;;16.90;44.70;;;;;;5044624;28;44735;-77
2021/12/26 10:24:56;;;;;;;1.73;1.42;;;16.90;46.10;;;;;;5043131;28;46402;-78
2021/12/26 10:27:30;;;;;;;2.05;1.70;;;16.90;44.90;;;;;;5039799;28;44802;-77
2021/12/26 10:29:59;;;;;;;3.80;1.85;;;16.80;44.50;;;;;;5035266;28;44729;-77
2021/12/26 10:32:31;;;;;;;2.47;1.80;;;16.90;44.00;;;;;;5047063;28;44942;-77
2021/12/26 10:35:02;;;;;;;2.22;1.92;;;17.00;43.80;;;;;;5068542;28;45421;-77
2021/12/26 10:37:33;;;;;;;2.55;1.98;;;16.90;43.30;;;;;;5066572;28;44809;-77
2021/12/26 10:40:06;;;;;;;2.00;1.73;;;16.90;43.30;;;;;;5042230;28;44666;-77
2021/12/26 10:42:36;;;;;;;2.28;1.80;;;17.00;43.50;;;;;;5042320;28;44953;-77
2021/12/26 10:45:09;;;;;;;2.50;1.73;;;16.90;43.30;;;;;;5058096;28;45700;-77
2021/12/26 10:47:42;;;;;;;2.60;1.95;;;16.90;43.30;;;;;;5042701;28;45209;-77
2021/12/26 10:50:13;;;;;;;2.30;2.10;;;16.90;43.10;;;;;;5031477;28;44861;-77
2021/12/26 10:52:42;;;;;;;2.85;2.08;;;16.90;43.30;;;;;;5032724;28;44720;-77
2021/12/26 10:55:12;;;;;;;3.30;2.00;;;16.90;43.40;;;;;;5032072;28;46381;-77
2021/12/26 10:57:41;;;;;;;2.35;1.88;;;16.90;43.30;;;;;;5050079;28;44557;-77
2021/12/26 11:00:16;;;;;;;2.53;2.20;;;16.90;43.40;;;;;;5047358;28;44693;-77
2021/12/26 11:02:45;;;;;;;3.63;2.50;;;16.80;43.30;;;;;;5049849;28;44783;-77
2021/12/26 11:05:17;;;;;;;2.80;1.90;;;16.80;43.40;;;;;;5032760;28;47011;-77
2021/12/26 11:07:50;;;;;;;2.75;2.30;;;16.80;43.70;;;;;;5048408;28;44753;-77
2021/12/26 11:10:22;;;;;;;2.63;1.80;;;16.80;43.70;;;;;;5049564;28;44969;-77
2021/12/26 11:12:56;;;;;;;2.00;1.70;;;16.80;43.80;;;;;;5041722;28;44647;-76
2021/12/26 11:15:25;;;;;;;3.08;1.67;;;16.80;44.00;;;;;;5046121;28;46586;-77
2021/12/26 11:17:54;;;;;;;3.40;2.20;;;16.80;43.80;;;;;;5042090;28;44722;-77
2021/12/26 11:20:26;;;;;;;2.65;2.00;;;16.80;43.60;;;;;;5048838;28;44633;-77
2021/12/26 11:22:54;;;;;;;3.95;2.42;;;16.80;43.50;;;;;;5036469;28;44766;-77
2021/12/26 11:25:22;;;;;;;2.63;1.92;;;16.80;43.50;;;;;;5045692;28;47709;-77
2021/12/26 11:27:50;;;;;;;2.63;2.22;;;16.80;43.50;;;;;;5033216;28;44898;-77
2021/12/26 11:30:18;;;;;;;2.72;1.95;;;16.80;43.50;;;;;;5047308;28;44818;-78
2021/12/26 11:32:45;;;;;;;2.17;1.98;;;16.80;43.40;;;;;;5033198;28;44764;-77
2021/12/26 11:35:13;;;;;;;2.30;2.10;;;16.80;43.50;;;;;;5042404;28;46332;-77
2021/12/26 11:37:42;;;;;;;3.20;2.47;;;16.80;43.50;;;;;;5045844;28;44707;-77
2021/12/26 11:40:13;;;;;;;2.80;1.92;;;16.90;43.40;;;;;;5045946;28;44670;-77
2021/12/26 11:43:13;;;;;;;2.63;1.90;;;16.90;43.60;;;;;;5040562;28;44803;-77
2021/12/26 11:45:50;;;;;;;2.20;2.00;;;16.80;43.70;;;;;;5042339;28;46642;-77
2021/12/26 11:48:44;;;;;;;3.05;2.30;;;16.80;43.60;;;;;;5045966;28;45110;-76
2021/12/26 11:51:35;;;;;;;3.78;2.30;;;16.80;43.60;;;;;;5029538;28;44755;-76
2021/12/26 11:54:25;;;;;;;2.40;1.98;;;16.80;43.60;;;;;;5043477;28;44725;-78
2021/12/26 11:57:06;;;;;;;2.63;2.00;;;16.80;43.80;;;;;;5042887;28;47466;-77
2021/12/26 11:59:48;;;;;;;2.78;1.85;;;16.80;43.70;;;;;;5041376;28;45154;-77
2021/12/26 12:02:34;;;;;;;2.30;2.10;;;16.80;43.70;;;;;;5047081;28;44978;-77
2021/12/26 12:05:09;;;;;;;2.85;2.13;;;16.80;43.60;;;;;;5050728;28;44961;-77
2021/12/26 12:07:46;;;;;;;2.72;2.13;;;16.90;43.50;;;;;;5043928;28;47269;-77
2021/12/26 12:10:56;;;;;;;2.83;2.00;;;16.80;43.40;;;;;;5049177;28;44603;-77
2021/12/26 12:13:49;;;;;;;2.25;1.88;;;16.80;43.60;;;;;;4982672;28;45103;-78
2021/12/26 12:16:31;;;;;;;2.95;2.10;;;16.80;43.70;;;;;;4981009;28;44912;-77
2021/12/26 12:19:01;;;;;;;2.15;1.92;;;16.80;43.80;;;;;;5035972;28;47564;-77
2021/12/26 12:21:34;;;;;;;2.40;2.00;;;16.80;43.70;;;;;;5046643;28;44632;-78
2021/12/26 12:24:05;;;;;;;2.45;1.95;;;16.90;43.80;;;;;;5041692;28;44819;-78
2021/12/26 12:26:49;;;;;;;2.63;2.08;;;16.90;43.90;;;;;;5040523;28;44742;-77
2021/12/26 12:29:51;;;;;;;2.65;2.00;;;16.90;44.00;;;;;;5045061;28;47001;-77
2021/12/26 12:32:22;;;;;;;2.88;2.00;;;16.90;44.00;;;;;;5043258;28;45106;-77
2021/12/26 12:34:52;;;;;;;2.75;1.92;;;16.90;44.00;;;;;;5045263;28;44774;-77
2021/12/26 12:37:32;;;;;;;3.47;2.20;;;16.90;43.80;;;;;;5050788;28;44875;-77
2021/12/26 12:40:17;;;;;;;2.65;2.28;;;16.90;43.80;;;;;;5042170;28;45733;-77
2021/12/26 12:43:01;;;;;;;3.60;2.35;;;16.90;43.70;;;;;;5044579;28;44672;-77
2021/12/26 12:45:29;;;;;;;2.35;2.13;;;16.90;43.70;;;;;;5041901;28;45037;-77
2021/12/26 12:48:23;;;;;;;3.05;2.10;;;16.90;43.50;;;;;;5043039;28;44740;-77
2021/12/26 12:50:50;;;;;;;2.42;1.90;;;16.90;43.60;;;;;;5044877;28;46613;-77
2021/12/26 12:53:39;;;;;;;2.83;1.90;;;16.90;43.60;;;;;;5042997;28;45223;-77
2021/12/26 12:56:07;;;;;;;2.60;2.00;;;16.90;43.70;;;;;;5044885;28;44916;-77
2021/12/26 12:58:36;;;;;;;2.17;1.83;;;16.90;43.70;;;;;;5046767;28;44724;-77
2021/12/26 13:01:07;;;;;;;2.80;2.05;;;16.90;43.70;;;;;;5050305;28;46848;-77